sensor_id;sensor_type;location;lat;lon;timestamp;P1;durP1;ratioP1;P2;durP2;ratioP2
75427;SDS011;64008;55.612;37.698;2022-10-15T00:01:36;6.97;;;3.03;;
75427;SDS011;64008;55.612;37.698;2022-10-15T00:04:01;10.40;;;3.60;;
75427;SDS011;64008;55.612;37.698;2022-10-15T00:06:27;7.75;;;3.10;;
75427;SDS011;64008;55.612;37.698;2022-10-15T00:08:53;6.13;;;2.85;;
75427;SDS011;64008;55.612;37.698;2022-10-15T00:11:20;10.20;;;2.95;;
75427;SDS011;64008;55.612;37.698;2022-10-15T00:13:48;7.18;;;3.03;;
75427;SDS011;64008;55.612;37.698;2022-10-15T00:16:15;7.25;;;2.85;;
75427;SDS011;64008;55.612;37.698;2022-10-15T00:18:43;11.52;;;3.38;;
75427;SDS011;64008;55.612;37.698;2022-10-15T00:21:10;7.07;;;2.83;;
75427;SDS011;64008;55.612;37.698;2022-10-15T00:23:37;10.57;;;3.10;;
75427;SDS011;64008;55.612;37.698;2022-10-15T00:28:29;6.78;;;3.00;;
75427;SDS011;64008;55.612;37.698;2022-10-15T00:31:28;6.93;;;2.85;;
75427;SDS011;64008;55.612;37.698;2022-10-15T00:33:49;7.70;;;2.60;;
75427;SDS011;64008;55.612;37.698;2022-10-15T00:36:16;8.77;;;3.00;;
75427;SDS011;64008;55.612;37.698;2022-10-15T00:38:46;6.25;;;2.60;;
75427;SDS011;64008;55.612;37.698;2022-10-15T00:41:14;7.63;;;2.58;;
75427;SDS011;64008;55.612;37.698;2022-10-15T00:43:49;7.93;;;2.90;;
75427;SDS011;64008;55.612;37.698;2022-10-15T00:48:54;7.35;;;3.13;;
75427;SDS011;64008;55.612;37.698;2022-10-15T00:51:23;7.28;;;2.78;;
75427;SDS011;64008;55.612;37.698;2022-10-15T00:53:53;6.70;;;2.70;;
75427;SDS011;64008;55.612;37.698;2022-10-15T00:56:19;7.30;;;2.75;;
75427;SDS011;64008;55.612;37.698;2022-10-15T00:58:48;7.80;;;2.67;;
75427;SDS011;64008;55.612;37.698;2022-10-15T01:01:16;6.82;;;2.22;;
75427;SDS011;64008;55.612;37.698;2022-10-15T01:03:42;7.88;;;2.72;;
75427;SDS011;64008;55.612;37.698;2022-10-15T01:06:08;8.18;;;3.15;;
75427;SDS011;64008;55.612;37.698;2022-10-15T01:08:33;5.22;;;2.80;;
75427;SDS011;64008;55.612;37.698;2022-10-15T01:16:49;5.15;;;2.38;;
75427;SDS011;64008;55.612;37.698;2022-10-15T01:28:28;6.60;;;2.55;;
75427;SDS011;64008;55.612;37.698;2022-10-15T01:37:40;7.07;;;2.63;;
75427;SDS011;64008;55.612;37.698;2022-10-15T01:43:10;8.48;;;2.78;;
75427;SDS011;64008;55.612;37.698;2022-10-15T01:45:42;7.63;;;2.67;;
75427;SDS011;64008;55.612;37.698;2022-10-15T01:48:12;6.32;;;2.75;;
75427;SDS011;64008;55.612;37.698;2022-10-15T01:50:47;7.53;;;2.75;;
75427;SDS011;64008;55.612;37.698;2022-10-15T01:53:20;8.57;;;3.33;;
75427;SDS011;64008;55.612;37.698;2022-10-15T01:55:57;8.15;;;2.70;;
75427;SDS011;64008;55.612;37.698;2022-10-15T01:58:26;6.13;;;2.40;;
75427;SDS011;64008;55.612;37.698;2022-10-15T02:00:53;5.55;;;2.15;;
75427;SDS011;64008;55.612;37.698;2022-10-15T02:03:21;6.45;;;2.63;;
75427;SDS011;64008;55.612;37.698;2022-10-15T02:05:48;5.63;;;2.40;;
75427;SDS011;64008;55.612;37.698;2022-10-15T02:16:13;6.53;;;2.13;;
75427;SDS011;64008;55.612;37.698;2022-10-15T02:21:46;6.25;;;2.10;;
75427;SDS011;64008;55.612;37.698;2022-10-15T02:24:23;7.95;;;2.78;;
75427;SDS011;64008;55.612;37.698;2022-10-15T02:26:51;6.85;;;2.45;;
75427;SDS011;64008;55.612;37.698;2022-10-15T02:29:21;8.25;;;3.03;;
75427;SDS011;64008;55.612;37.698;2022-10-15T02:31:50;5.60;;;1.92;;
75427;SDS011;64008;55.612;37.698;2022-10-15T02:34:20;6.45;;;2.38;;
75427;SDS011;64008;55.612;37.698;2022-10-15T02:36:50;8.00;;;2.22;;
75427;SDS011;64008;55.612;37.698;2022-10-15T02:39:18;6.93;;;2.47;;
75427;SDS011;64008;55.612;37.698;2022-10-15T02:41:50;7.60;;;2.90;;
75427;SDS011;64008;55.612;37.698;2022-10-15T02:46:42;5.27;;;2.20;;
75427;SDS011;64008;55.612;37.698;2022-10-15T02:49:08;5.93;;;2.38;;
75427;SDS011;64008;55.612;37.698;2022-10-15T02:51:34;7.38;;;2.25;;
75427;SDS011;64008;55.612;37.698;2022-10-15T02:54:01;6.13;;;2.42;;
75427;SDS011;64008;55.612;37.698;2022-10-15T02:56:27;7.32;;;2.45;;
75427;SDS011;64008;55.612;37.698;2022-10-15T02:58:53;9.75;;;2.97;;
75427;SDS011;64008;55.612;37.698;2022-10-15T03:01:19;8.15;;;2.33;;
75427;SDS011;64008;55.612;37.698;2022-10-15T03:03:44;7.38;;;2.30;;
75427;SDS011;64008;55.612;37.698;2022-10-15T03:06:10;12.40;;;3.28;;
75427;SDS011;64008;55.612;37.698;2022-10-15T03:08:35;6.28;;;2.10;;
75427;SDS011;64008;55.612;37.698;2022-10-15T03:11:01;6.30;;;2.50;;
75427;SDS011;64008;55.612;37.698;2022-10-15T03:13:27;7.25;;;2.33;;
75427;SDS011;64008;55.612;37.698;2022-10-15T03:15:53;9.25;;;2.30;;
75427;SDS011;64008;55.612;37.698;2022-10-15T03:18:18;7.53;;;2.58;;
75427;SDS011;64008;55.612;37.698;2022-10-15T03:20:49;6.95;;;2.30;;
75427;SDS011;64008;55.612;37.698;2022-10-15T03:23:17;4.97;;;1.92;;
75427;SDS011;64008;55.612;37.698;2022-10-15T03:25:43;5.63;;;2.30;;
75427;SDS011;64008;55.612;37.698;2022-10-15T03:28:08;5.70;;;2.28;;
75427;SDS011;64008;55.612;37.698;2022-10-15T03:30:33;6.50;;;2.38;;
75427;SDS011;64008;55.612;37.698;2022-10-15T03:32:59;6.45;;;2.30;;
75427;SDS011;64008;55.612;37.698;2022-10-15T03:35:24;6.13;;;2.28;;
75427;SDS011;64008;55.612;37.698;2022-10-15T03:37:50;5.93;;;2.10;;
75427;SDS011;64008;55.612;37.698;2022-10-15T03:40:15;5.22;;;2.03;;
75427;SDS011;64008;55.612;37.698;2022-10-15T03:42:41;6.28;;;2.55;;
75427;SDS011;64008;55.612;37.698;2022-10-15T03:45:06;5.38;;;2.78;;
75427;SDS011;64008;55.612;37.698;2022-10-15T03:47:32;7.50;;;2.35;;
75427;SDS011;64008;55.612;37.698;2022-10-15T03:49:58;11.75;;;2.30;;
75427;SDS011;64008;55.612;37.698;2022-10-15T03:52:23;8.27;;;2.60;;
75427;SDS011;64008;55.612;37.698;2022-10-15T03:54:49;6.32;;;2.47;;
75427;SDS011;64008;55.612;37.698;2022-10-15T03:57:14;5.57;;;2.10;;
75427;SDS011;64008;55.612;37.698;2022-10-15T03:59:40;6.43;;;1.85;;
75427;SDS011;64008;55.612;37.698;2022-10-15T04:02:05;6.05;;;2.30;;
75427;SDS011;64008;55.612;37.698;2022-10-15T04:04:31;5.70;;;2.33;;
75427;SDS011;64008;55.612;37.698;2022-10-15T04:06:56;6.85;;;2.47;;
75427;SDS011;64008;55.612;37.698;2022-10-15T04:09:21;5.15;;;1.90;;
75427;SDS011;64008;55.612;37.698;2022-10-15T04:11:47;5.82;;;2.50;;
75427;SDS011;64008;55.612;37.698;2022-10-15T04:14:12;6.35;;;2.40;;
75427;SDS011;64008;55.612;37.698;2022-10-15T04:16:38;6.10;;;2.53;;
75427;SDS011;64008;55.612;37.698;2022-10-15T04:19:03;5.45;;;2.42;;
75427;SDS011;64008;55.612;37.698;2022-10-15T04:21:29;8.88;;;2.60;;
75427;SDS011;64008;55.612;37.698;2022-10-15T04:23:54;5.78;;;2.85;;
75427;SDS011;64008;55.612;37.698;2022-10-15T04:26:20;6.45;;;2.40;;
75427;SDS011;64008;55.612;37.698;2022-10-15T04:28:46;5.75;;;2.50;;
75427;SDS011;64008;55.612;37.698;2022-10-15T04:31:13;5.50;;;2.22;;
75427;SDS011;64008;55.612;37.698;2022-10-15T04:33:38;7.35;;;2.58;;
75427;SDS011;64008;55.612;37.698;2022-10-15T04:36:07;6.85;;;2.05;;
75427;SDS011;64008;55.612;37.698;2022-10-15T04:38:37;6.47;;;2.20;;
75427;SDS011;64008;55.612;37.698;2022-10-15T04:41:03;8.57;;;2.28;;
75427;SDS011;64008;55.612;37.698;2022-10-15T04:43:30;7.85;;;2.67;;
75427;SDS011;64008;55.612;37.698;2022-10-15T04:45:57;5.57;;;2.47;;
75427;SDS011;64008;55.612;37.698;2022-10-15T04:48:26;10.20;;;3.40;;
75427;SDS011;64008;55.612;37.698;2022-10-15T04:50:53;7.05;;;2.88;;
75427;SDS011;64008;55.612;37.698;2022-10-15T04:53:19;7.93;;;2.63;;
75427;SDS011;64008;55.612;37.698;2022-10-15T04:55:45;8.57;;;2.83;;
75427;SDS011;64008;55.612;37.698;2022-10-15T04:58:10;5.28;;;2.60;;
75427;SDS011;64008;55.612;37.698;2022-10-15T05:00:36;6.50;;;2.63;;
75427;SDS011;64008;55.612;37.698;2022-10-15T05:03:03;5.88;;;1.95;;
75427;SDS011;64008;55.612;37.698;2022-10-15T05:05:31;5.88;;;2.50;;
75427;SDS011;64008;55.612;37.698;2022-10-15T05:08:00;7.18;;;2.55;;
75427;SDS011;64008;55.612;37.698;2022-10-15T05:10:27;7.72;;;2.30;;
75427;SDS011;64008;55.612;37.698;2022-10-15T05:12:53;7.15;;;2.45;;
75427;SDS011;64008;55.612;37.698;2022-10-15T05:15:18;5.00;;;2.33;;
75427;SDS011;64008;55.612;37.698;2022-10-15T05:17:44;7.60;;;2.67;;
75427;SDS011;64008;55.612;37.698;2022-10-15T05:20:09;5.50;;;2.30;;
75427;SDS011;64008;55.612;37.698;2022-10-15T05:22:35;6.10;;;2.20;;
75427;SDS011;64008;55.612;37.698;2022-10-15T05:25:00;8.55;;;2.70;;
75427;SDS011;64008;55.612;37.698;2022-10-15T05:27:25;7.32;;;3.15;;
75427;SDS011;64008;55.612;37.698;2022-10-15T05:29:51;6.18;;;2.92;;
75427;SDS011;64008;55.612;37.698;2022-10-15T05:32:17;9.48;;;2.83;;
75427;SDS011;64008;55.612;37.698;2022-10-15T05:34:42;5.72;;;2.22;;
75427;SDS011;64008;55.612;37.698;2022-10-15T05:37:07;6.95;;;2.33;;
75427;SDS011;64008;55.612;37.698;2022-10-15T05:39:33;7.00;;;2.38;;
75427;SDS011;64008;55.612;37.698;2022-10-15T05:41:58;6.60;;;2.50;;
75427;SDS011;64008;55.612;37.698;2022-10-15T05:44:24;8.20;;;2.55;;
75427;SDS011;64008;55.612;37.698;2022-10-15T05:46:49;6.95;;;2.53;;
75427;SDS011;64008;55.612;37.698;2022-10-15T05:49:15;5.80;;;2.55;;
75427;SDS011;64008;55.612;37.698;2022-10-15T05:51:40;7.40;;;2.40;;
75427;SDS011;64008;55.612;37.698;2022-10-15T05:54:06;6.50;;;1.90;;
75427;SDS011;64008;55.612;37.698;2022-10-15T05:56:31;7.60;;;2.83;;
75427;SDS011;64008;55.612;37.698;2022-10-15T05:58:57;6.97;;;2.60;;
75427;SDS011;64008;55.612;37.698;2022-10-15T06:01:22;7.05;;;2.40;;
75427;SDS011;64008;55.612;37.698;2022-10-15T06:03:48;4.80;;;1.67;;
75427;SDS011;64008;55.612;37.698;2022-10-15T06:06:17;8.70;;;2.65;;
75427;SDS011;64008;55.612;37.698;2022-10-15T06:08:44;6.18;;;2.25;;
75427;SDS011;64008;55.612;37.698;2022-10-15T06:11:11;7.70;;;2.50;;
75427;SDS011;64008;55.612;37.698;2022-10-15T06:13:37;6.20;;;1.73;;
75427;SDS011;64008;55.612;37.698;2022-10-15T06:16:04;5.65;;;2.08;;
75427;SDS011;64008;55.612;37.698;2022-10-15T06:18:30;4.68;;;2.00;;
75427;SDS011;64008;55.612;37.698;2022-10-15T06:20:56;4.93;;;2.20;;
75427;SDS011;64008;55.612;37.698;2022-10-15T06:23:22;5.20;;;1.88;;
75427;SDS011;64008;55.612;37.698;2022-10-15T06:25:49;6.82;;;2.60;;
75427;SDS011;64008;55.612;37.698;2022-10-15T06:28:15;6.03;;;2.40;;
75427;SDS011;64008;55.612;37.698;2022-10-15T06:30:41;4.85;;;2.00;;
75427;SDS011;64008;55.612;37.698;2022-10-15T06:33:07;4.22;;;1.92;;
75427;SDS011;64008;55.612;37.698;2022-10-15T06:35:33;5.63;;;1.80;;
75427;SDS011;64008;55.612;37.698;2022-10-15T06:38:00;6.57;;;2.30;;
75427;SDS011;64008;55.612;37.698;2022-10-15T06:40:26;7.18;;;2.30;;
75427;SDS011;64008;55.612;37.698;2022-10-15T06:42:52;8.98;;;2.30;;
75427;SDS011;64008;55.612;37.698;2022-10-15T06:45:17;5.80;;;2.65;;
75427;SDS011;64008;55.612;37.698;2022-10-15T06:47:43;5.95;;;2.42;;
75427;SDS011;64008;55.612;37.698;2022-10-15T06:50:08;7.45;;;2.20;;
75427;SDS011;64008;55.612;37.698;2022-10-15T06:52:34;6.00;;;2.05;;
75427;SDS011;64008;55.612;37.698;2022-10-15T06:55:00;9.45;;;3.35;;
75427;SDS011;64008;55.612;37.698;2022-10-15T06:57:26;16.02;;;5.65;;
75427;SDS011;64008;55.612;37.698;2022-10-15T06:59:52;6.43;;;2.50;;
75427;SDS011;64008;55.612;37.698;2022-10-15T07:02:18;8.30;;;2.63;;
75427;SDS011;64008;55.612;37.698;2022-10-15T07:04:47;8.70;;;3.00;;
75427;SDS011;64008;55.612;37.698;2022-10-15T07:07:13;6.45;;;2.65;;
75427;SDS011;64008;55.612;37.698;2022-10-15T07:09:39;8.60;;;2.70;;
75427;SDS011;64008;55.612;37.698;2022-10-15T07:12:05;6.82;;;1.98;;
75427;SDS011;64008;55.612;37.698;2022-10-15T07:14:30;5.85;;;2.05;;
75427;SDS011;64008;55.612;37.698;2022-10-15T07:16:56;13.07;;;2.40;;
75427;SDS011;64008;55.612;37.698;2022-10-15T07:19:22;11.02;;;2.25;;
75427;SDS011;64008;55.612;37.698;2022-10-15T07:21:47;13.70;;;2.97;;
75427;SDS011;64008;55.612;37.698;2022-10-15T07:24:13;8.00;;;2.55;;
75427;SDS011;64008;55.612;37.698;2022-10-15T07:26:38;7.88;;;2.70;;
75427;SDS011;64008;55.612;37.698;2022-10-15T07:29:04;7.43;;;3.03;;
75427;SDS011;64008;55.612;37.698;2022-10-15T07:31:29;11.20;;;3.38;;
75427;SDS011;64008;55.612;37.698;2022-10-15T07:33:55;8.93;;;3.88;;
75427;SDS011;64008;55.612;37.698;2022-10-15T07:36:20;10.48;;;3.33;;
75427;SDS011;64008;55.612;37.698;2022-10-15T07:38:46;9.38;;;3.30;;
75427;SDS011;64008;55.612;37.698;2022-10-15T07:41:12;8.65;;;3.50;;
75427;SDS011;64008;55.612;37.698;2022-10-15T07:43:38;10.50;;;4.25;;
75427;SDS011;64008;55.612;37.698;2022-10-15T07:46:03;8.30;;;3.78;;
75427;SDS011;64008;55.612;37.698;2022-10-15T07:48:29;10.02;;;4.50;;
75427;SDS011;64008;55.612;37.698;2022-10-15T07:50:56;9.38;;;3.95;;
75427;SDS011;64008;55.612;37.698;2022-10-15T07:53:23;10.13;;;4.60;;
75427;SDS011;64008;55.612;37.698;2022-10-15T07:55:49;9.98;;;4.35;;
75427;SDS011;64008;55.612;37.698;2022-10-15T07:58:15;9.27;;;4.13;;
75427;SDS011;64008;55.612;37.698;2022-10-15T08:00:40;12.10;;;4.20;;
75427;SDS011;64008;55.612;37.698;2022-10-15T08:03:06;9.40;;;3.78;;
75427;SDS011;64008;55.612;37.698;2022-10-15T08:05:32;9.77;;;3.85;;
75427;SDS011;64008;55.612;37.698;2022-10-15T08:07:58;8.95;;;3.55;;
75427;SDS011;64008;55.612;37.698;2022-10-15T08:10:24;9.48;;;3.90;;
75427;SDS011;64008;55.612;37.698;2022-10-15T08:12:49;8.23;;;3.33;;
75427;SDS011;64008;55.612;37.698;2022-10-15T08:15:15;7.70;;;3.03;;
75427;SDS011;64008;55.612;37.698;2022-10-15T08:17:41;7.65;;;3.40;;
75427;SDS011;64008;55.612;37.698;2022-10-15T08:20:06;9.40;;;3.42;;
75427;SDS011;64008;55.612;37.698;2022-10-15T08:22:32;11.20;;;3.83;;
75427;SDS011;64008;55.612;37.698;2022-10-15T08:24:58;12.43;;;3.55;;
75427;SDS011;64008;55.612;37.698;2022-10-15T08:27:24;7.85;;;3.47;;
75427;SDS011;64008;55.612;37.698;2022-10-15T08:29:49;7.95;;;3.55;;
75427;SDS011;64008;55.612;37.698;2022-10-15T08:32:15;9.20;;;3.25;;
75427;SDS011;64008;55.612;37.698;2022-10-15T08:34:40;9.68;;;3.60;;
75427;SDS011;64008;55.612;37.698;2022-10-15T08:37:06;7.45;;;3.13;;
75427;SDS011;64008;55.612;37.698;2022-10-15T08:39:31;9.55;;;3.03;;
75427;SDS011;64008;55.612;37.698;2022-10-15T08:41:58;6.82;;;2.95;;
75427;SDS011;64008;55.612;37.698;2022-10-15T08:44:53;10.32;;;3.00;;
75427;SDS011;64008;55.612;37.698;2022-10-15T08:47:45;7.22;;;2.90;;
75427;SDS011;64008;55.612;37.698;2022-10-15T08:52:46;7.40;;;2.70;;
75427;SDS011;64008;55.612;37.698;2022-10-15T08:55:14;9.80;;;3.20;;
75427;SDS011;64008;55.612;37.698;2022-10-15T08:57:56;6.78;;;2.97;;
75427;SDS011;64008;55.612;37.698;2022-10-15T09:00:33;8.70;;;3.17;;
75427;SDS011;64008;55.612;37.698;2022-10-15T09:05:49;9.65;;;2.40;;
75427;SDS011;64008;55.612;37.698;2022-10-15T09:08:34;8.07;;;3.20;;
75427;SDS011;64008;55.612;37.698;2022-10-15T09:11:12;7.20;;;2.65;;
75427;SDS011;64008;55.612;37.698;2022-10-15T09:13:46;7.15;;;3.55;;
75427;SDS011;64008;55.612;37.698;2022-10-15T09:16:19;8.55;;;3.55;;
75427;SDS011;64008;55.612;37.698;2022-10-15T09:18:50;8.88;;;2.42;;
75427;SDS011;64008;55.612;37.698;2022-10-15T09:21:16;6.95;;;2.50;;
75427;SDS011;64008;55.612;37.698;2022-10-15T09:23:44;8.25;;;3.10;;
75427;SDS011;64008;55.612;37.698;2022-10-15T09:42:52;5.95;;;2.42;;
75427;SDS011;64008;55.612;37.698;2022-10-15T09:45:21;5.82;;;2.47;;
75427;SDS011;64008;55.612;37.698;2022-10-15T09:47:48;8.77;;;3.10;;
75427;SDS011;64008;55.612;37.698;2022-10-15T09:50:14;6.07;;;2.83;;
75427;SDS011;64008;55.612;37.698;2022-10-15T09:52:50;15.70;;;3.30;;
75427;SDS011;64008;55.612;37.698;2022-10-15T09:58:16;8.73;;;3.28;;
75427;SDS011;64008;55.612;37.698;2022-10-15T10:01:07;8.63;;;3.65;;
75427;SDS011;64008;55.612;37.698;2022-10-15T10:03:33;9.20;;;3.55;;
75427;SDS011;64008;55.612;37.698;2022-10-15T10:06:03;9.60;;;3.58;;
75427;SDS011;64008;55.612;37.698;2022-10-15T10:08:55;8.23;;;3.22;;
75427;SDS011;64008;55.612;37.698;2022-10-15T10:11:23;12.10;;;3.72;;
75427;SDS011;64008;55.612;37.698;2022-10-15T10:13:52;8.35;;;4.00;;
75427;SDS011;64008;55.612;37.698;2022-10-15T10:16:20;10.05;;;4.03;;
75427;SDS011;64008;55.612;37.698;2022-10-15T10:21:32;7.78;;;3.08;;
75427;SDS011;64008;55.612;37.698;2022-10-15T10:24:23;6.10;;;2.88;;
75427;SDS011;64008;55.612;37.698;2022-10-15T10:26:50;9.90;;;3.80;;
75427;SDS011;64008;55.612;37.698;2022-10-15T10:29:19;10.82;;;3.72;;
75427;SDS011;64008;55.612;37.698;2022-10-15T10:31:46;8.25;;;3.63;;
75427;SDS011;64008;55.612;37.698;2022-10-15T10:34:16;10.15;;;4.05;;
75427;SDS011;64008;55.612;37.698;2022-10-15T10:36:49;11.07;;;4.45;;
75427;SDS011;64008;55.612;37.698;2022-10-15T10:44:31;12.30;;;4.72;;
75427;SDS011;64008;55.612;37.698;2022-10-15T10:49:36;10.13;;;4.50;;
75427;SDS011;64008;55.612;37.698;2022-10-15T10:52:04;11.82;;;5.15;;
75427;SDS011;64008;55.612;37.698;2022-10-15T10:54:30;9.02;;;4.13;;
75427;SDS011;64008;55.612;37.698;2022-10-15T10:56:58;13.57;;;4.22;;
75427;SDS011;64008;55.612;37.698;2022-10-15T10:59:34;10.25;;;4.53;;
75427;SDS011;64008;55.612;37.698;2022-10-15T11:02:10;13.05;;;4.22;;
75427;SDS011;64008;55.612;37.698;2022-10-15T11:04:37;10.98;;;4.55;;
75427;SDS011;64008;55.612;37.698;2022-10-15T11:15:35;10.20;;;3.88;;
75427;SDS011;64008;55.612;37.698;2022-10-15T11:20:46;9.57;;;4.63;;
75427;SDS011;64008;55.612;37.698;2022-10-15T11:28:52;11.50;;;4.47;;
75427;SDS011;64008;55.612;37.698;2022-10-15T11:31:34;11.93;;;4.15;;
75427;SDS011;64008;55.612;37.698;2022-10-15T11:34:57;12.35;;;5.28;;
75427;SDS011;64008;55.612;37.698;2022-10-15T11:42:07;9.82;;;4.20;;
75427;SDS011;64008;55.612;37.698;2022-10-15T11:47:55;14.73;;;5.00;;
75427;SDS011;64008;55.612;37.698;2022-10-15T11:53:39;13.73;;;4.70;;
75427;SDS011;64008;55.612;37.698;2022-10-15T11:56:16;12.02;;;5.00;;
75427;SDS011;64008;55.612;37.698;2022-10-15T11:58:49;16.02;;;4.75;;
75427;SDS011;64008;55.612;37.698;2022-10-15T12:01:20;9.50;;;4.15;;
75427;SDS011;64008;55.612;37.698;2022-10-15T12:03:59;11.07;;;4.72;;
75427;SDS011;64008;55.612;37.698;2022-10-15T12:06:32;12.18;;;5.20;;
75427;SDS011;64008;55.612;37.698;2022-10-15T12:09:04;14.10;;;5.03;;
75427;SDS011;64008;55.612;37.698;2022-10-15T12:11:44;10.68;;;4.65;;
75427;SDS011;64008;55.612;37.698;2022-10-15T12:14:20;10.07;;;4.30;;
75427;SDS011;64008;55.612;37.698;2022-10-15T12:19:25;13.02;;;4.10;;
75427;SDS011;64008;55.612;37.698;2022-10-15T12:32:30;10.65;;;3.60;;
75427;SDS011;64008;55.612;37.698;2022-10-15T12:35:05;8.68;;;3.58;;
75427;SDS011;64008;55.612;37.698;2022-10-15T12:37:43;9.88;;;3.83;;
75427;SDS011;64008;55.612;37.698;2022-10-15T12:42:50;9.90;;;3.75;;
75427;SDS011;64008;55.612;37.698;2022-10-15T12:45:20;7.75;;;2.92;;
75427;SDS011;64008;55.612;37.698;2022-10-15T12:47:53;11.00;;;3.50;;
75427;SDS011;64008;55.612;37.698;2022-10-15T12:50:24;10.55;;;3.30;;
75427;SDS011;64008;55.612;37.698;2022-10-15T12:58:02;10.93;;;4.00;;
75427;SDS011;64008;55.612;37.698;2022-10-15T13:00:47;11.38;;;4.35;;
75427;SDS011;64008;55.612;37.698;2022-10-15T13:03:14;9.80;;;3.28;;
75427;SDS011;64008;55.612;37.698;2022-10-15T13:05:46;12.52;;;4.75;;
75427;SDS011;64008;55.612;37.698;2022-10-15T13:08:14;9.80;;;3.30;;
75427;SDS011;64008;55.612;37.698;2022-10-15T13:10:48;9.02;;;3.00;;
75427;SDS011;64008;55.612;37.698;2022-10-15T13:13:18;8.60;;;2.88;;
75427;SDS011;64008;55.612;37.698;2022-10-15T13:16:07;9.75;;;3.95;;
75427;SDS011;64008;55.612;37.698;2022-10-15T13:18:37;9.13;;;3.30;;
75427;SDS011;64008;55.612;37.698;2022-10-15T13:21:04;9.57;;;3.03;;
75427;SDS011;64008;55.612;37.698;2022-10-15T13:23:31;8.23;;;3.60;;
75427;SDS011;64008;55.612;37.698;2022-10-15T13:28:44;8.80;;;3.38;;
75427;SDS011;64008;55.612;37.698;2022-10-15T13:31:30;6.95;;;2.80;;
75427;SDS011;64008;55.612;37.698;2022-10-15T13:34:04;11.40;;;4.38;;
75427;SDS011;64008;55.612;37.698;2022-10-15T13:36:49;10.82;;;3.42;;
75427;SDS011;64008;55.612;37.698;2022-10-15T13:39:34;8.90;;;3.33;;
75427;SDS011;64008;55.612;37.698;2022-10-15T13:42:14;8.15;;;3.05;;
75427;SDS011;64008;55.612;37.698;2022-10-15T13:44:43;7.03;;;3.22;;
75427;SDS011;64008;55.612;37.698;2022-10-15T13:47:27;9.90;;;3.55;;
75427;SDS011;64008;55.612;37.698;2022-10-15T13:52:43;7.30;;;3.30;;
75427;SDS011;64008;55.612;37.698;2022-10-15T13:55:17;9.63;;;3.65;;
75427;SDS011;64008;55.612;37.698;2022-10-15T13:57:45;11.60;;;3.50;;
75427;SDS011;64008;55.612;37.698;2022-10-15T14:00:26;7.82;;;3.20;;
75427;SDS011;64008;55.612;37.698;2022-10-15T14:05:39;9.57;;;3.42;;
75427;SDS011;64008;55.612;37.698;2022-10-15T14:08:11;10.60;;;3.80;;
75427;SDS011;64008;55.612;37.698;2022-10-15T14:10:39;8.10;;;3.08;;
75427;SDS011;64008;55.612;37.698;2022-10-15T14:13:04;13.68;;;3.70;;
75427;SDS011;64008;55.612;37.698;2022-10-15T14:15:47;9.05;;;2.97;;
75427;SDS011;64008;55.612;37.698;2022-10-15T14:18:30;10.55;;;3.33;;
75427;SDS011;64008;55.612;37.698;2022-10-15T14:20:59;9.52;;;3.58;;
75427;SDS011;64008;55.612;37.698;2022-10-15T14:23:25;10.45;;;3.65;;
75427;SDS011;64008;55.612;37.698;2022-10-15T14:25:54;10.45;;;4.30;;
75427;SDS011;64008;55.612;37.698;2022-10-15T14:28:21;10.18;;;3.70;;
75427;SDS011;64008;55.612;37.698;2022-10-15T14:30:48;8.55;;;4.13;;
75427;SDS011;64008;55.612;37.698;2022-10-15T14:38:37;8.15;;;3.80;;
75427;SDS011;64008;55.612;37.698;2022-10-15T14:41:04;8.93;;;3.55;;
75427;SDS011;64008;55.612;37.698;2022-10-15T14:43:42;8.23;;;3.42;;
75427;SDS011;64008;55.612;37.698;2022-10-15T14:46:11;11.02;;;3.83;;
75427;SDS011;64008;55.612;37.698;2022-10-15T14:48:41;9.40;;;3.88;;
75427;SDS011;64008;55.612;37.698;2022-10-15T14:51:13;11.80;;;4.05;;
75427;SDS011;64008;55.612;37.698;2022-10-15T14:53:46;11.55;;;4.15;;
75427;SDS011;64008;55.612;37.698;2022-10-15T14:56:18;9.75;;;4.05;;
75427;SDS011;64008;55.612;37.698;2022-10-15T14:58:46;8.27;;;3.47;;
75427;SDS011;64008;55.612;37.698;2022-10-15T15:01:16;9.82;;;4.05;;
75427;SDS011;64008;55.612;37.698;2022-10-15T15:03:44;11.38;;;4.15;;
75427;SDS011;64008;55.612;37.698;2022-10-15T15:06:12;11.25;;;3.90;;
75427;SDS011;64008;55.612;37.698;2022-10-15T15:08:38;10.18;;;4.15;;
75427;SDS011;64008;55.612;37.698;2022-10-15T15:11:04;11.05;;;4.43;;
75427;SDS011;64008;55.612;37.698;2022-10-15T15:13:36;11.30;;;4.63;;
75427;SDS011;64008;55.612;37.698;2022-10-15T15:16:03;12.43;;;4.75;;
75427;SDS011;64008;55.612;37.698;2022-10-15T15:18:29;10.23;;;4.80;;
75427;SDS011;64008;55.612;37.698;2022-10-15T15:20:56;11.90;;;5.03;;
75427;SDS011;64008;55.612;37.698;2022-10-15T15:23:26;12.43;;;4.70;;
75427;SDS011;64008;55.612;37.698;2022-10-15T15:25:52;12.32;;;5.18;;
75427;SDS011;64008;55.612;37.698;2022-10-15T15:28:19;11.98;;;5.10;;
75427;SDS011;64008;55.612;37.698;2022-10-15T15:31:06;15.90;;;5.63;;
75427;SDS011;64008;55.612;37.698;2022-10-15T15:33:37;12.20;;;5.95;;
75427;SDS011;64008;55.612;37.698;2022-10-15T15:38:31;15.52;;;5.75;;
75427;SDS011;64008;55.612;37.698;2022-10-15T15:41:01;16.33;;;5.97;;
75427;SDS011;64008;55.612;37.698;2022-10-15T15:43:37;13.70;;;5.70;;
75427;SDS011;64008;55.612;37.698;2022-10-15T15:46:03;14.55;;;6.28;;
75427;SDS011;64008;55.612;37.698;2022-10-15T15:48:29;12.88;;;4.95;;
75427;SDS011;64008;55.612;37.698;2022-10-15T15:50:56;16.40;;;6.80;;
75427;SDS011;64008;55.612;37.698;2022-10-15T15:53:23;16.50;;;6.10;;
75427;SDS011;64008;55.612;37.698;2022-10-15T15:55:49;19.02;;;6.20;;
75427;SDS011;64008;55.612;37.698;2022-10-15T15:58:14;13.85;;;5.82;;
75427;SDS011;64008;55.612;37.698;2022-10-15T16:00:40;12.65;;;5.95;;
75427;SDS011;64008;55.612;37.698;2022-10-15T16:03:05;16.60;;;6.00;;
75427;SDS011;64008;55.612;37.698;2022-10-15T16:05:32;15.25;;;5.75;;
75427;SDS011;64008;55.612;37.698;2022-10-15T16:07:58;14.23;;;5.53;;
75427;SDS011;64008;55.612;37.698;2022-10-15T16:10:23;16.08;;;6.93;;
75427;SDS011;64008;55.612;37.698;2022-10-15T16:12:49;13.20;;;5.72;;
75427;SDS011;64008;55.612;37.698;2022-10-15T16:15:14;14.18;;;6.18;;
75427;SDS011;64008;55.612;37.698;2022-10-15T16:17:40;19.52;;;6.88;;
75427;SDS011;64008;55.612;37.698;2022-10-15T16:20:06;17.27;;;6.47;;
75427;SDS011;64008;55.612;37.698;2022-10-15T16:22:31;16.92;;;6.78;;
75427;SDS011;64008;55.612;37.698;2022-10-15T16:24:57;21.25;;;7.47;;
75427;SDS011;64008;55.612;37.698;2022-10-15T16:27:22;19.05;;;7.05;;
75427;SDS011;64008;55.612;37.698;2022-10-15T16:29:48;20.02;;;7.55;;
75427;SDS011;64008;55.612;37.698;2022-10-15T16:32:13;16.08;;;6.78;;
75427;SDS011;64008;55.612;37.698;2022-10-15T16:34:39;18.80;;;8.07;;
75427;SDS011;64008;55.612;37.698;2022-10-15T16:37:04;18.23;;;7.55;;
75427;SDS011;64008;55.612;37.698;2022-10-15T16:39:30;19.20;;;7.90;;
75427;SDS011;64008;55.612;37.698;2022-10-15T16:41:55;21.25;;;8.65;;
75427;SDS011;64008;55.612;37.698;2022-10-15T16:44:20;17.30;;;7.97;;
75427;SDS011;64008;55.612;37.698;2022-10-15T16:46:47;19.15;;;8.10;;
75427;SDS011;64008;55.612;37.698;2022-10-15T16:49:13;20.30;;;7.70;;
75427;SDS011;64008;55.612;37.698;2022-10-15T16:51:38;22.00;;;8.75;;
75427;SDS011;64008;55.612;37.698;2022-10-15T16:54:04;22.27;;;9.40;;
75427;SDS011;64008;55.612;37.698;2022-10-15T16:56:29;23.77;;;9.80;;
75427;SDS011;64008;55.612;37.698;2022-10-15T16:58:55;20.80;;;8.50;;
75427;SDS011;64008;55.612;37.698;2022-10-15T17:01:26;20.00;;;9.32;;
75427;SDS011;64008;55.612;37.698;2022-10-15T17:03:52;22.45;;;9.15;;